sensor_id;sensor_type;location;lat;lon;timestamp;P1;durP1;ratioP1;P2;durP2;ratioP2
36653;SDS011;22650;49.350;20.898;2022-09-01T00:00:23;3.60;;;1.98;;
36653;SDS011;22650;49.350;20.898;2022-09-01T00:02:59;6.38;;;2.47;;
36653;SDS011;22650;49.350;20.898;2022-09-01T00:05:33;4.47;;;2.25;;
36653;SDS011;22650;49.350;20.898;2022-09-01T00:08:06;5.68;;;2.33;;
36653;SDS011;22650;49.350;20.898;2022-09-01T00:10:40;4.10;;;2.03;;
36653;SDS011;22650;49.350;20.898;2022-09-01T00:13:15;3.00;;;2.13;;
36653;SDS011;22650;49.350;20.898;2022-09-01T00:15:49;5.80;;;3.28;;
36653;SDS011;22650;49.350;20.898;2022-09-01T00:18:22;4.60;;;2.22;;
36653;SDS011;22650;49.350;20.898;2022-09-01T00:20:56;3.97;;;2.30;;
36653;SDS011;22650;49.350;20.898;2022-09-01T00:23:30;3.00;;;1.92;;
36653;SDS011;22650;49.350;20.898;2022-09-01T00:26:04;3.85;;;2.08;;
36653;SDS011;22650;49.350;20.898;2022-09-01T00:28:39;3.95;;;1.63;;
36653;SDS011;22650;49.350;20.898;2022-09-01T00:31:13;3.30;;;1.88;;
36653;SDS011;22650;49.350;20.898;2022-09-01T00:33:47;2.53;;;1.73;;
36653;SDS011;22650;49.350;20.898;2022-09-01T00:36:22;5.07;;;2.28;;
36653;SDS011;22650;49.350;20.898;2022-09-01T00:38:56;6.90;;;2.25;;
36653;SDS011;22650;49.350;20.898;2022-09-01T00:41:30;5.25;;;2.40;;
36653;SDS011;22650;49.350;20.898;2022-09-01T00:44:07;5.57;;;2.13;;
36653;SDS011;22650;49.350;20.898;2022-09-01T00:46:45;5.75;;;2.38;;
36653;SDS011;22650;49.350;20.898;2022-09-01T00:49:27;3.28;;;2.03;;
36653;SDS011;22650;49.350;20.898;2022-09-01T00:52:06;3.58;;;1.92;;
36653;SDS011;22650;49.350;20.898;2022-09-01T00:54:44;2.78;;;2.17;;
36653;SDS011;22650;49.350;20.898;2022-09-01T00:57:19;6.00;;;1.77;;
36653;SDS011;22650;49.350;20.898;2022-09-01T00:59:56;3.47;;;2.17;;
36653;SDS011;22650;49.350;20.898;2022-09-01T01:02:32;3.05;;;1.58;;
36653;SDS011;22650;49.350;20.898;2022-09-01T01:05:07;6.75;;;1.77;;
36653;SDS011;22650;49.350;20.898;2022-09-01T01:07:45;3.03;;;1.95;;
36653;SDS011;22650;49.350;20.898;2022-09-01T01:10:19;3.90;;;2.45;;
36653;SDS011;22650;49.350;20.898;2022-09-01T01:12:55;5.55;;;2.17;;
36653;SDS011;22650;49.350;20.898;2022-09-01T01:15:33;3.13;;;1.95;;
36653;SDS011;22650;49.350;20.898;2022-09-01T01:18:08;3.85;;;2.05;;
36653;SDS011;22650;49.350;20.898;2022-09-01T01:20:42;4.10;;;1.52;;
36653;SDS011;22650;49.350;20.898;2022-09-01T01:23:37;7.15;;;2.40;;
36653;SDS011;22650;49.350;20.898;2022-09-01T01:26:14;2.90;;;1.50;;
36653;SDS011;22650;49.350;20.898;2022-09-01T01:28:48;4.22;;;1.63;;
36653;SDS011;22650;49.350;20.898;2022-09-01T01:31:26;5.45;;;2.58;;
36653;SDS011;22650;49.350;20.898;2022-09-01T01:34:00;6.72;;;2.20;;
36653;SDS011;22650;49.350;20.898;2022-09-01T01:36:36;4.90;;;2.10;;
36653;SDS011;22650;49.350;20.898;2022-09-01T01:39:18;5.38;;;1.67;;
36653;SDS011;22650;49.350;20.898;2022-09-01T01:41:57;7.18;;;1.83;;
36653;SDS011;22650;49.350;20.898;2022-09-01T01:44:30;7.65;;;1.90;;
36653;SDS011;22650;49.350;20.898;2022-09-01T01:47:04;3.45;;;1.85;;
36653;SDS011;22650;49.350;20.898;2022-09-01T01:49:43;4.60;;;2.33;;
36653;SDS011;22650;49.350;20.898;2022-09-01T01:52:17;3.60;;;1.85;;
36653;SDS011;22650;49.350;20.898;2022-09-01T01:54:56;5.30;;;1.88;;
36653;SDS011;22650;49.350;20.898;2022-09-01T01:57:37;3.72;;;1.52;;
36653;SDS011;22650;49.350;20.898;2022-09-01T02:00:20;4.05;;;1.98;;
36653;SDS011;22650;49.350;20.898;2022-09-01T02:03:01;4.03;;;2.00;;
36653;SDS011;22650;49.350;20.898;2022-09-01T02:05:35;4.63;;;2.08;;
36653;SDS011;22650;49.350;20.898;2022-09-01T02:08:09;3.95;;;1.75;;
36653;SDS011;22650;49.350;20.898;2022-09-01T02:10:44;3.72;;;1.85;;
36653;SDS011;22650;49.350;20.898;2022-09-01T02:13:22;3.25;;;1.67;;
36653;SDS011;22650;49.350;20.898;2022-09-01T02:16:03;7.97;;;1.95;;
36653;SDS011;22650;49.350;20.898;2022-09-01T02:18:44;2.95;;;1.60;;
36653;SDS011;22650;49.350;20.898;2022-09-01T02:21:20;4.05;;;1.90;;
36653;SDS011;22650;49.350;20.898;2022-09-01T02:23:56;3.97;;;1.85;;
36653;SDS011;22650;49.350;20.898;2022-09-01T02:26:34;2.90;;;1.80;;
36653;SDS011;22650;49.350;20.898;2022-09-01T02:29:12;3.70;;;2.08;;
36653;SDS011;22650;49.350;20.898;2022-09-01T02:31:50;3.92;;;1.58;;
36653;SDS011;22650;49.350;20.898;2022-09-01T02:34:25;3.10;;;1.73;;
36653;SDS011;22650;49.350;20.898;2022-09-01T02:36:59;5.20;;;1.50;;
36653;SDS011;22650;49.350;20.898;2022-09-01T02:39:32;4.18;;;1.98;;
36653;SDS011;22650;49.350;20.898;2022-09-01T02:42:06;5.35;;;1.88;;
36653;SDS011;22650;49.350;20.898;2022-09-01T02:44:42;4.15;;;2.15;;
36653;SDS011;22650;49.350;20.898;2022-09-01T02:47:16;4.95;;;2.15;;
36653;SDS011;22650;49.350;20.898;2022-09-01T02:49:50;4.07;;;1.75;;
36653;SDS011;22650;49.350;20.898;2022-09-01T02:52:24;3.53;;;2.17;;
36653;SDS011;22650;49.350;20.898;2022-09-01T02:54:58;4.28;;;1.85;;
36653;SDS011;22650;49.350;20.898;2022-09-01T02:57:33;5.10;;;1.77;;
36653;SDS011;22650;49.350;20.898;2022-09-01T03:00:09;3.45;;;1.98;;
36653;SDS011;22650;49.350;20.898;2022-09-01T03:02:51;4.18;;;1.75;;
36653;SDS011;22650;49.350;20.898;2022-09-01T03:05:26;2.40;;;1.52;;
36653;SDS011;22650;49.350;20.898;2022-09-01T03:08:02;3.50;;;1.58;;
36653;SDS011;22650;49.350;20.898;2022-09-01T03:10:42;3.25;;;2.08;;
36653;SDS011;22650;49.350;20.898;2022-09-01T03:13:19;3.45;;;2.03;;
36653;SDS011;22650;49.350;20.898;2022-09-01T03:15:55;5.88;;;2.22;;
36653;SDS011;22650;49.350;20.898;2022-09-01T03:18:29;5.75;;;1.95;;
36653;SDS011;22650;49.350;20.898;2022-09-01T03:21:03;3.33;;;1.77;;
36653;SDS011;22650;49.350;20.898;2022-09-01T03:23:37;4.18;;;1.80;;
36653;SDS011;22650;49.350;20.898;2022-09-01T03:26:11;5.05;;;1.80;;
36653;SDS011;22650;49.350;20.898;2022-09-01T03:28:45;6.53;;;2.08;;
36653;SDS011;22650;49.350;20.898;2022-09-01T03:31:22;9.10;;;1.83;;
36653;SDS011;22650;49.350;20.898;2022-09-01T03:34:02;2.38;;;1.55;;
36653;SDS011;22650;49.350;20.898;2022-09-01T03:36:41;3.20;;;1.58;;
36653;SDS011;22650;49.350;20.898;2022-09-01T03:39:30;2.40;;;1.50;;
36653;SDS011;22650;49.350;20.898;2022-09-01T03:42:04;3.13;;;2.00;;
36653;SDS011;22650;49.350;20.898;2022-09-01T03:44:41;2.85;;;1.70;;
36653;SDS011;22650;49.350;20.898;2022-09-01T03:47:19;2.22;;;1.75;;
36653;SDS011;22650;49.350;20.898;2022-09-01T03:49:55;3.72;;;1.88;;
36653;SDS011;22650;49.350;20.898;2022-09-01T03:52:30;3.53;;;1.92;;
36653;SDS011;22650;49.350;20.898;2022-09-01T03:55:05;2.97;;;1.48;;
36653;SDS011;22650;49.350;20.898;2022-09-01T03:57:40;5.57;;;1.63;;
36653;SDS011;22650;49.350;20.898;2022-09-01T04:00:14;2.60;;;1.70;;
36653;SDS011;22650;49.350;20.898;2022-09-01T04:02:53;5.82;;;1.52;;
36653;SDS011;22650;49.350;20.898;2022-09-01T04:05:30;4.38;;;1.70;;
36653;SDS011;22650;49.350;20.898;2022-09-01T04:08:05;3.58;;;1.63;;
36653;SDS011;22650;49.350;20.898;2022-09-01T04:10:43;2.95;;;1.38;;
36653;SDS011;22650;49.350;20.898;2022-09-01T04:13:25;3.00;;;1.70;;
36653;SDS011;22650;49.350;20.898;2022-09-01T04:16:01;5.47;;;1.27;;
36653;SDS011;22650;49.350;20.898;2022-09-01T04:18:42;2.13;;;1.30;;
36653;SDS011;22650;49.350;20.898;2022-09-01T04:21:19;3.70;;;1.67;;
36653;SDS011;22650;49.350;20.898;2022-09-01T04:23:53;5.45;;;2.00;;
36653;SDS011;22650;49.350;20.898;2022-09-01T04:26:36;8.60;;;2.00;;
36653;SDS011;22650;49.350;20.898;2022-09-01T04:29:11;2.40;;;1.98;;
36653;SDS011;22650;49.350;20.898;2022-09-01T04:31:45;2.85;;;1.38;;
36653;SDS011;22650;49.350;20.898;2022-09-01T04:34:25;3.90;;;1.50;;
36653;SDS011;22650;49.350;20.898;2022-09-01T04:37:00;6.53;;;2.05;;
36653;SDS011;22650;49.350;20.898;2022-09-01T04:39:34;7.70;;;1.75;;
36653;SDS011;22650;49.350;20.898;2022-09-01T04:42:09;3.67;;;1.45;;
36653;SDS011;22650;49.350;20.898;2022-09-01T04:44:43;4.50;;;1.75;;
36653;SDS011;22650;49.350;20.898;2022-09-01T04:47:17;3.58;;;2.10;;
36653;SDS011;22650;49.350;20.898;2022-09-01T04:50:09;3.85;;;1.60;;
36653;SDS011;22650;49.350;20.898;2022-09-01T04:53:08;4.00;;;1.90;;
36653;SDS011;22650;49.350;20.898;2022-09-01T04:55:46;1.70;;;1.05;;
36653;SDS011;22650;49.350;20.898;2022-09-01T04:58:23;5.65;;;1.88;;
36653;SDS011;22650;49.350;20.898;2022-09-01T05:00:57;4.05;;;1.83;;
36653;SDS011;22650;49.350;20.898;2022-09-01T05:03:38;4.55;;;2.10;;
36653;SDS011;22650;49.350;20.898;2022-09-01T05:06:22;3.38;;;2.00;;
36653;SDS011;22650;49.350;20.898;2022-09-01T05:09:02;3.33;;;1.85;;
36653;SDS011;22650;49.350;20.898;2022-09-01T05:12:04;3.13;;;1.80;;
36653;SDS011;22650;49.350;20.898;2022-09-01T05:14:48;2.20;;;1.40;;
36653;SDS011;22650;49.350;20.898;2022-09-01T05:17:24;3.22;;;1.52;;
36653;SDS011;22650;49.350;20.898;2022-09-01T05:20:00;1.98;;;1.58;;
36653;SDS011;22650;49.350;20.898;2022-09-01T05:22:35;2.58;;;1.70;;
36653;SDS011;22650;49.350;20.898;2022-09-01T05:25:11;4.18;;;2.05;;
36653;SDS011;22650;49.350;20.898;2022-09-01T05:27:47;9.25;;;2.13;;
36653;SDS011;22650;49.350;20.898;2022-09-01T05:30:25;5.03;;;1.70;;
36653;SDS011;22650;49.350;20.898;2022-09-01T05:32:59;3.53;;;1.92;;
36653;SDS011;22650;49.350;20.898;2022-09-01T05:35:32;2.90;;;1.80;;
36653;SDS011;22650;49.350;20.898;2022-09-01T05:38:09;5.25;;;2.05;;
36653;SDS011;22650;49.350;20.898;2022-09-01T05:40:53;6.13;;;2.35;;
36653;SDS011;22650;49.350;20.898;2022-09-01T05:43:28;3.08;;;1.65;;
36653;SDS011;22650;49.350;20.898;2022-09-01T05:46:05;3.20;;;1.75;;
36653;SDS011;22650;49.350;20.898;2022-09-01T05:48:40;3.40;;;2.33;;
36653;SDS011;22650;49.350;20.898;2022-09-01T05:51:15;4.13;;;1.98;;
36653;SDS011;22650;49.350;20.898;2022-09-01T05:54:12;6.70;;;1.63;;
36653;SDS011;22650;49.350;20.898;2022-09-01T05:56:45;3.28;;;2.10;;
36653;SDS011;22650;49.350;20.898;2022-09-01T05:59:23;8.73;;;2.63;;
36653;SDS011;22650;49.350;20.898;2022-09-01T06:02:04;3.08;;;1.83;;
36653;SDS011;22650;49.350;20.898;2022-09-01T06:04:40;3.85;;;2.10;;
36653;SDS011;22650;49.350;20.898;2022-09-01T06:07:20;5.93;;;2.00;;
36653;SDS011;22650;49.350;20.898;2022-09-01T06:09:59;7.68;;;2.30;;
36653;SDS011;22650;49.350;20.898;2022-09-01T06:12:32;3.92;;;2.00;;
36653;SDS011;22650;49.350;20.898;2022-09-01T06:15:06;11.38;;;2.30;;
36653;SDS011;22650;49.350;20.898;2022-09-01T06:20:24;6.30;;;2.80;;
36653;SDS011;22650;49.350;20.898;2022-09-01T06:23:00;5.43;;;2.05;;
36653;SDS011;22650;49.350;20.898;2022-09-01T06:25:36;3.97;;;2.58;;
36653;SDS011;22650;49.350;20.898;2022-09-01T06:28:11;3.92;;;1.70;;
36653;SDS011;22650;49.350;20.898;2022-09-01T06:30:45;6.93;;;2.33;;
36653;SDS011;22650;49.350;20.898;2022-09-01T06:33:20;3.58;;;2.00;;
36653;SDS011;22650;49.350;20.898;2022-09-01T06:35:55;2.90;;;1.58;;
36653;SDS011;22650;49.350;20.898;2022-09-01T06:38:33;2.95;;;1.48;;
36653;SDS011;22650;49.350;20.898;2022-09-01T06:41:09;3.35;;;1.80;;
36653;SDS011;22650;49.350;20.898;2022-09-01T06:43:44;4.10;;;1.95;;
36653;SDS011;22650;49.350;20.898;2022-09-01T06:46:18;3.63;;;1.75;;
36653;SDS011;22650;49.350;20.898;2022-09-01T06:48:52;3.90;;;1.67;;
36653;SDS011;22650;49.350;20.898;2022-09-01T06:51:29;5.43;;;1.52;;
36653;SDS011;22650;49.350;20.898;2022-09-01T06:54:04;4.65;;;1.77;;
36653;SDS011;22650;49.350;20.898;2022-09-01T06:56:46;3.55;;;1.85;;
36653;SDS011;22650;49.350;20.898;2022-09-01T06:59:26;3.10;;;1.75;;
36653;SDS011;22650;49.350;20.898;2022-09-01T07:02:22;2.47;;;1.40;;
36653;SDS011;22650;49.350;20.898;2022-09-01T07:05:21;4.10;;;1.60;;
36653;SDS011;22650;49.350;20.898;2022-09-01T07:08:15;5.63;;;1.48;;
36653;SDS011;22650;49.350;20.898;2022-09-01T07:11:08;3.00;;;0.98;;
36653;SDS011;22650;49.350;20.898;2022-09-01T07:14:21;3.58;;;1.67;;
36653;SDS011;22650;49.350;20.898;2022-09-01T07:16:55;2.75;;;1.45;;
36653;SDS011;22650;49.350;20.898;2022-09-01T07:19:49;8.50;;;1.90;;
36653;SDS011;22650;49.350;20.898;2022-09-01T07:22:22;3.78;;;1.50;;
36653;SDS011;22650;49.350;20.898;2022-09-01T07:25:08;1.55;;;1.10;;
36653;SDS011;22650;49.350;20.898;2022-09-01T07:28:03;4.63;;;1.77;;
36653;SDS011;22650;49.350;20.898;2022-09-01T07:30:40;2.70;;;1.73;;
36653;SDS011;22650;49.350;20.898;2022-09-01T07:33:22;3.83;;;1.35;;
36653;SDS011;22650;49.350;20.898;2022-09-01T07:36:16;3.08;;;1.77;;
36653;SDS011;22650;49.350;20.898;2022-09-01T07:38:58;3.58;;;1.90;;
36653;SDS011;22650;49.350;20.898;2022-09-01T07:42:09;6.70;;;1.50;;
36653;SDS011;22650;49.350;20.898;2022-09-01T07:45:21;5.65;;;1.15;;
36653;SDS011;22650;49.350;20.898;2022-09-01T07:48:04;2.15;;;0.95;;
36653;SDS011;22650;49.350;20.898;2022-09-01T07:50:49;2.45;;;1.60;;
36653;SDS011;22650;49.350;20.898;2022-09-01T07:53:44;1.92;;;1.20;;
36653;SDS011;22650;49.350;20.898;2022-09-01T07:56:22;2.63;;;1.38;;
36653;SDS011;22650;49.350;20.898;2022-09-01T07:58:57;4.05;;;1.38;;
36653;SDS011;22650;49.350;20.898;2022-09-01T08:01:31;3.50;;;1.50;;
36653;SDS011;22650;49.350;20.898;2022-09-01T08:04:06;3.95;;;0.95;;
36653;SDS011;22650;49.350;20.898;2022-09-01T08:06:39;2.58;;;1.48;;
36653;SDS011;22650;49.350;20.898;2022-09-01T08:09:14;5.57;;;1.38;;
36653;SDS011;22650;49.350;20.898;2022-09-01T08:12:03;3.90;;;1.45;;
36653;SDS011;22650;49.350;20.898;2022-09-01T08:14:42;5.15;;;1.30;;
36653;SDS011;22650;49.350;20.898;2022-09-01T08:17:17;4.35;;;1.23;;
36653;SDS011;22650;49.350;20.898;2022-09-01T08:20:16;4.65;;;1.00;;
36653;SDS011;22650;49.350;20.898;2022-09-01T08:22:53;1.27;;;0.80;;
36653;SDS011;22650;49.350;20.898;2022-09-01T08:25:38;1.50;;;1.30;;
36653;SDS011;22650;49.350;20.898;2022-09-01T08:28:13;2.17;;;1.15;;
36653;SDS011;22650;49.350;20.898;2022-09-01T08:30:57;2.33;;;1.17;;
36653;SDS011;22650;49.350;20.898;2022-09-01T08:33:32;2.42;;;1.00;;
36653;SDS011;22650;49.350;20.898;2022-09-01T08:36:07;1.88;;;1.23;;
36653;SDS011;22650;49.350;20.898;2022-09-01T08:38:42;3.08;;;1.25;;
36653;SDS011;22650;49.350;20.898;2022-09-01T08:41:16;2.05;;;1.20;;
36653;SDS011;22650;49.350;20.898;2022-09-01T08:44:00;1.60;;;0.98;;
36653;SDS011;22650;49.350;20.898;2022-09-01T08:46:41;1.70;;;0.82;;
36653;SDS011;22650;49.350;20.898;2022-09-01T08:49:18;1.42;;;0.88;;
36653;SDS011;22650;49.350;20.898;2022-09-01T08:52:21;2.78;;;1.15;;
36653;SDS011;22650;49.350;20.898;2022-09-01T08:55:07;1.10;;;1.00;;
36653;SDS011;22650;49.350;20.898;2022-09-01T08:57:47;3.05;;;1.20;;
36653;SDS011;22650;49.350;20.898;2022-09-01T09:00:32;3.50;;;1.10;;
36653;SDS011;22650;49.350;20.898;2022-09-01T09:03:19;2.65;;;1.38;;
36653;SDS011;22650;49.350;20.898;2022-09-01T09:06:19;4.63;;;1.20;;
36653;SDS011;22650;49.350;20.898;2022-09-01T09:08:58;2.20;;;0.88;;
36653;SDS011;22650;49.350;20.898;2022-09-01T09:11:52;1.48;;;0.70;;
36653;SDS011;22650;49.350;20.898;2022-09-01T09:14:49;1.70;;;0.90;;
36653;SDS011;22650;49.350;20.898;2022-09-01T09:17:30;2.00;;;0.88;;
36653;SDS011;22650;49.350;20.898;2022-09-01T09:20:07;1.55;;;0.95;;
36653;SDS011;22650;49.350;20.898;2022-09-01T09:22:41;3.80;;;0.98;;
36653;SDS011;22650;49.350;20.898;2022-09-01T09:25:19;1.70;;;0.95;;
36653;SDS011;22650;49.350;20.898;2022-09-01T09:27:54;4.90;;;1.10;;
36653;SDS011;22650;49.350;20.898;2022-09-01T09:30:32;4.25;;;0.93;;
36653;SDS011;22650;49.350;20.898;2022-09-01T09:33:06;0.85;;;0.70;;
36653;SDS011;22650;49.350;20.898;2022-09-01T09:36:14;1.40;;;0.68;;
36653;SDS011;22650;49.350;20.898;2022-09-01T09:39:06;4.43;;;1.10;;
36653;SDS011;22650;49.350;20.898;2022-09-01T09:41:43;1.23;;;0.75;;
36653;SDS011;22650;49.350;20.898;2022-09-01T09:44:40;4.50;;;1.02;;
36653;SDS011;22650;49.350;20.898;2022-09-01T09:47:33;3.35;;;0.90;;
36653;SDS011;22650;49.350;20.898;2022-09-01T09:50:18;1.08;;;0.80;;
36653;SDS011;22650;49.350;20.898;2022-09-01T09:53:09;2.63;;;0.90;;
36653;SDS011;22650;49.350;20.898;2022-09-01T09:55:50;2.88;;;0.75;;
36653;SDS011;22650;49.350;20.898;2022-09-01T09:58:35;2.10;;;1.02;;
36653;SDS011;22650;49.350;20.898;2022-09-01T10:01:11;9.02;;;1.55;;
36653;SDS011;22650;49.350;20.898;2022-09-01T10:03:49;4.65;;;1.40;;
36653;SDS011;22650;49.350;20.898;2022-09-01T10:06:31;3.53;;;1.85;;
36653;SDS011;22650;49.350;20.898;2022-09-01T10:09:07;2.05;;;1.13;;
36653;SDS011;22650;49.350;20.898;2022-09-01T10:11:48;1.13;;;0.80;;
36653;SDS011;22650;49.350;20.898;2022-09-01T10:14:30;2.08;;;0.88;;
36653;SDS011;22650;49.350;20.898;2022-09-01T10:17:27;2.10;;;1.33;;
36653;SDS011;22650;49.350;20.898;2022-09-01T10:20:08;1.67;;;1.02;;
36653;SDS011;22650;49.350;20.898;2022-09-01T10:22:46;1.73;;;1.10;;
36653;SDS011;22650;49.350;20.898;2022-09-01T10:25:22;6.00;;;1.13;;
36653;SDS011;22650;49.350;20.898;2022-09-01T10:28:01;1.38;;;0.85;;
36653;SDS011;22650;49.350;20.898;2022-09-01T10:30:44;1.95;;;0.88;;
36653;SDS011;22650;49.350;20.898;2022-09-01T10:33:19;0.45;;;0.40;;
36653;SDS011;22650;49.350;20.898;2022-09-01T10:35:54;1.83;;;0.75;;
36653;SDS011;22650;49.350;20.898;2022-09-01T10:38:27;3.55;;;0.82;;
36653;SDS011;22650;49.350;20.898;2022-09-01T10:41:02;2.47;;;1.27;;
36653;SDS011;22650;49.350;20.898;2022-09-01T10:43:45;1.92;;;0.95;;
36653;SDS011;22650;49.350;20.898;2022-09-01T10:46:41;2.10;;;1.33;;
36653;SDS011;22650;49.350;20.898;2022-09-01T10:55:23;1.17;;;0.80;;
36653;SDS011;22650;49.350;20.898;2022-09-01T10:58:03;1.13;;;0.63;;
36653;SDS011;22650;49.350;20.898;2022-09-01T11:01:10;5.78;;;1.00;;
36653;SDS011;22650;49.350;20.898;2022-09-01T11:04:06;2.22;;;0.98;;
36653;SDS011;22650;49.350;20.898;2022-09-01T11:06:43;0.85;;;0.80;;
36653;SDS011;22650;49.350;20.898;2022-09-01T11:09:43;4.68;;;0.93;;
36653;SDS011;22650;49.350;20.898;2022-09-01T11:12:31;1.42;;;0.85;;
36653;SDS011;22650;49.350;20.898;2022-09-01T11:18:16;1.60;;;0.90;;
36653;SDS011;22650;49.350;20.898;2022-09-01T11:27:10;2.10;;;1.00;;
36653;SDS011;22650;49.350;20.898;2022-09-01T11:29:49;1.10;;;0.73;;
36653;SDS011;22650;49.350;20.898;2022-09-01T11:32:26;2.80;;;1.10;;
36653;SDS011;22650;49.350;20.898;2022-09-01T11:35:05;4.35;;;2.60;;
36653;SDS011;22650;49.350;20.898;2022-09-01T11:37:50;2.35;;;0.90;;
36653;SDS011;22650;49.350;20.898;2022-09-01T11:40:30;2.40;;;0.80;;
36653;SDS011;22650;49.350;20.898;2022-09-01T11:43:08;3.95;;;0.90;;
36653;SDS011;22650;49.350;20.898;2022-09-01T11:45:49;0.82;;;0.70;;
36653;SDS011;22650;49.350;20.898;2022-09-01T11:48:34;2.95;;;1.17;;
36653;SDS011;22650;49.350;20.898;2022-09-01T11:51:08;3.63;;;0.80;;
36653;SDS011;22650;49.350;20.898;2022-09-01T11:53:45;3.97;;;1.20;;
36653;SDS011;22650;49.350;20.898;2022-09-01T11:56:19;1.67;;;0.60;;
36653;SDS011;22650;49.350;20.898;2022-09-01T11:58:59;3.58;;;0.80;;
36653;SDS011;22650;49.350;20.898;2022-09-01T12:01:36;2.03;;;0.77;;
36653;SDS011;22650;49.350;20.898;2022-09-01T12:04:18;2.30;;;1.05;;
36653;SDS011;22650;49.350;20.898;2022-09-01T12:06:55;0.85;;;0.68;;
36653;SDS011;22650;49.350;20.898;2022-09-01T12:09:34;2.30;;;0.82;;
36653;SDS011;22650;49.350;20.898;2022-09-01T12:12:24;1.75;;;0.55;;
36653;SDS011;22650;49.350;20.898;2022-09-01T12:15:07;0.68;;;0.47;;
36653;SDS011;22650;49.350;20.898;2022-09-01T12:17:44;2.97;;;1.10;;
36653;SDS011;22650;49.350;20.898;2022-09-01T12:20:18;4.18;;;0.80;;
36653;SDS011;22650;49.350;20.898;2022-09-01T12:22:59;0.93;;;0.70;;
36653;SDS011;22650;49.350;20.898;2022-09-01T12:25:34;1.80;;;0.98;;
36653;SDS011;22650;49.350;20.898;2022-09-01T12:28:07;1.00;;;0.60;;
36653;SDS011;22650;49.350;20.898;2022-09-01T12:30:43;2.13;;;0.88;;
36653;SDS011;22650;49.350;20.898;2022-09-01T12:33:16;1.02;;;0.65;;
36653;SDS011;22650;49.350;20.898;2022-09-01T12:38:45;3.30;;;0.95;;
36653;SDS011;22650;49.350;20.898;2022-09-01T12:41:22;0.65;;;0.47;;
36653;SDS011;22650;49.350;20.898;2022-09-01T12:47:03;2.50;;;1.00;;
36653;SDS011;22650;49.350;20.898;2022-09-01T12:49:39;1.13;;;0.50;;
36653;SDS011;22650;49.350;20.898;2022-09-01T12:52:22;1.60;;;0.70;;
36653;SDS011;22650;49.350;20.898;2022-09-01T12:55:07;1.35;;;0.90;;
36653;SDS011;22650;49.350;20.898;2022-09-01T12:58:07;8.65;;;1.50;;
36653;SDS011;22650;49.350;20.898;2022-09-01T13:00:53;1.75;;;0.82;;
36653;SDS011;22650;49.350;20.898;2022-09-01T13:03:30;2.10;;;0.77;;
36653;SDS011;22650;49.350;20.898;2022-09-01T13:06:05;0.95;;;0.57;;
36653;SDS011;22650;49.350;20.898;2022-09-01T13:08:39;1.77;;;0.60;;
36653;SDS011;22650;49.350;20.898;2022-09-01T13:11:14;1.48;;;0.38;;
36653;SDS011;22650;49.350;20.898;2022-09-01T13:13:50;3.10;;;1.30;;
36653;SDS011;22650;49.350;20.898;2022-09-01T13:16:24;1.45;;;0.60;;
36653;SDS011;22650;49.350;20.898;2022-09-01T13:18:59;1.83;;;0.95;;
36653;SDS011;22650;49.350;20.898;2022-09-01T13:21:52;1.98;;;0.77;;
36653;SDS011;22650;49.350;20.898;2022-09-01T13:24:26;0.90;;;0.65;;
36653;SDS011;22650;49.350;20.898;2022-09-01T13:27:02;1.08;;;0.60;;
36653;SDS011;22650;49.350;20.898;2022-09-01T13:29:52;1.48;;;0.85;;
36653;SDS011;22650;49.350;20.898;2022-09-01T13:32:26;1.15;;;0.73;;
36653;SDS011;22650;49.350;20.898;2022-09-01T13:35:01;1.55;;;0.80;;
36653;SDS011;22650;49.350;20.898;2022-09-01T13:37:34;1.00;;;0.52;;
36653;SDS011;22650;49.350;20.898;2022-09-01T13:40:08;2.53;;;1.25;;
36653;SDS011;22650;49.350;20.898;2022-09-01T13:42:47;4.18;;;0.60;;
36653;SDS011;22650;49.350;20.898;2022-09-01T13:45:22;0.82;;;0.60;;
36653;SDS011;22650;49.350;20.898;2022-09-01T13:47:56;2.95;;;0.77;;
36653;SDS011;22650;49.350;20.898;2022-09-01T13:50:48;1.13;;;0.50;;
36653;SDS011;22650;49.350;20.898;2022-09-01T13:53:44;3.38;;;0.95;;
36653;SDS011;22650;49.350;20.898;2022-09-01T13:56:17;1.48;;;0.80;;
36653;SDS011;22650;49.350;20.898;2022-09-01T13:58:51;2.05;;;0.80;;
36653;SDS011;22650;49.350;20.898;2022-09-01T14:01:24;0.68;;;0.68;;
36653;SDS011;22650;49.350;20.898;2022-09-01T14:03:58;3.72;;;0.77;;
36653;SDS011;22650;49.350;20.898;2022-09-01T14:06:39;2.05;;;0.45;;
36653;SDS011;22650;49.350;20.898;2022-09-01T14:09:14;1.58;;;0.70;;
36653;SDS011;22650;49.350;20.898;2022-09-01T14:11:50;2.20;;;0.70;;
36653;SDS011;22650;49.350;20.898;2022-09-01T14:14:24;0.98;;;0.60;;
36653;SDS011;22650;49.350;20.898;2022-09-01T14:17:18;4.65;;;0.80;;
36653;SDS011;22650;49.350;20.898;2022-09-01T14:19:51;4.00;;;1.00;;
36653;SDS011;22650;49.350;20.898;2022-09-01T14:22:27;1.65;;;0.73;;
36653;SDS011;22650;49.350;20.898;2022-09-01T14:25:02;4.43;;;1.25;;
36653;SDS011;22650;49.350;20.898;2022-09-01T14:27:41;1.00;;;0.65;;
36653;SDS011;22650;49.350;20.898;2022-09-01T14:30:16;0.80;;;0.60;;
36653;SDS011;22650;49.350;20.898;2022-09-01T14:32:51;2.40;;;0.98;;
36653;SDS011;22650;49.350;20.898;2022-09-01T14:35:25;1.52;;;0.52;;
36653;SDS011;22650;49.350;20.898;2022-09-01T14:38:00;2.53;;;0.35;;
36653;SDS011;22650;49.350;20.898;2022-09-01T14:40:36;1.45;;;0.45;;
36653;SDS011;22650;49.350;20.898;2022-09-01T14:43:10;3.85;;;0.75;;
36653;SDS011;22650;49.350;20.898;2022-09-01T14:45:45;0.90;;;0.63;;
36653;SDS011;22650;49.350;20.898;2022-09-01T14:48:19;1.85;;;0.60;;
36653;SDS011;22650;49.350;20.898;2022-09-01T14:50:52;1.05;;;0.55;;
36653;SDS011;22650;49.350;20.898;2022-09-01T14:53:27;2.47;;;1.20;;
36653;SDS011;22650;49.350;20.898;2022-09-01T14:56:01;1.60;;;0.70;;
36653;SDS011;22650;49.350;20.898;2022-09-01T14:58:35;1.50;;;0.80;;
36653;SDS011;22650;49.350;20.898;2022-09-01T15:01:09;3.20;;;0.85;;
36653;SDS011;22650;49.350;20.898;2022-09-01T15:04:03;6.07;;;1.40;;
36653;SDS011;22650;49.350;20.898;2022-09-01T15:06:36;2.47;;;0.95;;
36653;SDS011;22650;49.350;20.898;2022-09-01T15:09:11;1.48;;;0.77;;
36653;SDS011;22650;49.350;20.898;2022-09-01T15:11:49;1.90;;;0.80;;
36653;SDS011;22650;49.350;20.898;2022-09-01T15:14:23;3.25;;;1.23;;
36653;SDS011;22650;49.350;20.898;2022-09-01T15:16:56;3.13;;;0.98;;
36653;SDS011;22650;49.350;20.898;2022-09-01T15:19:30;1.00;;;0.88;;
36653;SDS011;22650;49.350;20.898;2022-09-01T15:22:03;17.42;;;4.57;;
36653;SDS011;22650;49.350;20.898;2022-09-01T15:24:38;17.63;;;4.32;;
36653;SDS011;22650;49.350;20.898;2022-09-01T15:27:12;1.70;;;0.80;;
36653;SDS011;22650;49.350;20.898;2022-09-01T15:29:45;2.72;;;0.70;;
36653;SDS011;22650;49.350;20.898;2022-09-01T15:32:23;2.63;;;0.88;;
36653;SDS011;22650;49.350;20.898;2022-09-01T15:34:58;3.92;;;0.73;;
36653;SDS011;22650;49.350;20.898;2022-09-01T15:37:32;0.88;;;0.55;;
36653;SDS011;22650;49.350;20.898;2022-09-01T15:40:08;2.35;;;0.82;;
36653;SDS011;22650;49.350;20.898;2022-09-01T15:42:41;1.40;;;0.80;;
36653;SDS011;22650;49.350;20.898;2022-09-01T15:45:16;0.35;;;0.35;;
36653;SDS011;22650;49.350;20.898;2022-09-01T15:47:52;3.17;;;0.88;;
36653;SDS011;22650;49.350;20.898;2022-09-01T15:50:26;1.38;;;0.60;;
36653;SDS011;22650;49.350;20.898;2022-09-01T15:53:02;4.82;;;1.27;;
36653;SDS011;22650;49.350;20.898;2022-09-01T15:55:41;2.20;;;1.20;;
36653;SDS011;22650;49.350;20.898;2022-09-01T15:58:16;0.85;;;0.65;;
36653;SDS011;22650;49.350;20.898;2022-09-01T16:00:50;2.83;;;1.02;;
36653;SDS011;22650;49.350;20.898;2022-09-01T16:03:24;6.88;;;1.25;;
36653;SDS011;22650;49.350;20.898;2022-09-01T16:05:58;1.13;;;0.60;;